sensor_id;sensor_type;location;lat;lon;timestamp;temperature;humidity
7958;DHT22;4024;52.172;5.378;2022-11-04T00:01:49;14.20;99.90
7958;DHT22;4024;52.172;5.378;2022-11-04T00:04:17;14.20;99.90
7958;DHT22;4024;52.172;5.378;2022-11-04T00:06:43;14.20;99.90
7958;DHT22;4024;52.172;5.378;2022-11-04T00:09:19;14.20;99.90
7958;DHT22;4024;52.172;5.378;2022-11-04T00:11:45;14.20;99.90
7958;DHT22;4024;52.172;5.378;2022-11-04T00:14:30;14.10;99.90
7958;DHT22;4024;52.172;5.378;2022-11-04T00:16:56;14.10;99.90
7958;DHT22;4024;52.172;5.378;2022-11-04T00:19:41;14.10;99.90
7958;DHT22;4024;52.172;5.378;2022-11-04T00:22:25;14.10;99.90
7958;DHT22;4024;52.172;5.378;2022-11-04T00:25:09;14.10;99.90
7958;DHT22;4024;52.172;5.378;2022-11-04T00:28:11;14.10;99.90
7958;DHT22;4024;52.172;5.378;2022-11-04T00:30:57;14.00;99.90
7958;DHT22;4024;52.172;5.378;2022-11-04T00:33:23;14.10;99.90
7958;DHT22;4024;52.172;5.378;2022-11-04T00:35:53;14.00;99.90
7958;DHT22;4024;52.172;5.378;2022-11-04T00:38:19;14.00;99.90
7958;DHT22;4024;52.172;5.378;2022-11-04T00:40:45;14.00;99.90
7958;DHT22;4024;52.172;5.378;2022-11-04T00:43:11;14.00;99.90
7958;DHT22;4024;52.172;5.378;2022-11-04T00:45:38;14.00;99.90
7958;DHT22;4024;52.172;5.378;2022-11-04T00:48:04;14.00;99.90
7958;DHT22;4024;52.172;5.378;2022-11-04T00:50:30;14.00;99.90
7958;DHT22;4024;52.172;5.378;2022-11-04T00:52:59;14.00;99.90
7958;DHT22;4024;52.172;5.378;2022-11-04T00:55:25;14.00;99.90
7958;DHT22;4024;52.172;5.378;2022-11-04T00:57:51;14.00;99.90
7958;DHT22;4024;52.172;5.378;2022-11-04T01:00:17;14.00;99.90
7958;DHT22;4024;52.172;5.378;2022-11-04T01:02:44;13.90;99.90
7958;DHT22;4024;52.172;5.378;2022-11-04T01:05:10;13.90;99.90
7958;DHT22;4024;52.172;5.378;2022-11-04T01:07:35;13.90;99.90
7958;DHT22;4024;52.172;5.378;2022-11-04T01:10:01;13.90;99.90
7958;DHT22;4024;52.172;5.378;2022-11-04T01:12:27;13.90;99.90
7958;DHT22;4024;52.172;5.378;2022-11-04T01:14:52;13.90;99.90
7958;DHT22;4024;52.172;5.378;2022-11-04T01:17:18;13.90;99.90
7958;DHT22;4024;52.172;5.378;2022-11-04T01:19:43;13.90;99.90
7958;DHT22;4024;52.172;5.378;2022-11-04T01:22:09;13.90;99.90
7958;DHT22;4024;52.172;5.378;2022-11-04T01:24:35;13.90;99.90
7958;DHT22;4024;52.172;5.378;2022-11-04T01:27:00;13.80;99.90
7958;DHT22;4024;52.172;5.378;2022-11-04T01:29:26;13.90;99.90
7958;DHT22;4024;52.172;5.378;2022-11-04T01:31:51;13.80;99.90
7958;DHT22;4024;52.172;5.378;2022-11-04T01:34:17;13.80;99.90
7958;DHT22;4024;52.172;5.378;2022-11-04T01:36:43;13.80;99.90
7958;DHT22;4024;52.172;5.378;2022-11-04T01:39:08;13.70;99.90
7958;DHT22;4024;52.172;5.378;2022-11-04T01:41:35;13.80;99.90
7958;DHT22;4024;52.172;5.378;2022-11-04T01:47:04;13.80;99.90
7958;DHT22;4024;52.172;5.378;2022-11-04T01:49:33;13.70;99.90
7958;DHT22;4024;52.172;5.378;2022-11-04T01:52:03;13.70;99.90
7958;DHT22;4024;52.172;5.378;2022-11-04T01:54:31;13.70;99.90
7958;DHT22;4024;52.172;5.378;2022-11-04T01:56:59;13.70;99.90
7958;DHT22;4024;52.172;5.378;2022-11-04T01:59:29;13.70;99.90
7958;DHT22;4024;52.172;5.378;2022-11-04T02:01:57;13.70;99.90
7958;DHT22;4024;52.172;5.378;2022-11-04T02:04:23;13.60;99.90
7958;DHT22;4024;52.172;5.378;2022-11-04T02:07:03;13.60;99.90
7958;DHT22;4024;52.172;5.378;2022-11-04T02:09:31;13.50;99.90
7958;DHT22;4024;52.172;5.378;2022-11-04T02:11:58;13.50;99.90
7958;DHT22;4024;52.172;5.378;2022-11-04T02:14:43;13.50;99.90
7958;DHT22;4024;52.172;5.378;2022-11-04T02:20:06;13.30;99.90
7958;DHT22;4024;52.172;5.378;2022-11-04T02:25:42;13.30;99.90
7958;DHT22;4024;52.172;5.378;2022-11-04T02:30:51;13.20;99.90
7958;DHT22;4024;52.172;5.378;2022-11-04T02:33:45;13.20;99.90
7958;DHT22;4024;52.172;5.378;2022-11-04T02:36:32;13.20;99.90
7958;DHT22;4024;52.172;5.378;2022-11-04T02:43:00;13.20;99.90
7958;DHT22;4024;52.172;5.378;2022-11-04T02:47:44;13.20;99.90
7958;DHT22;4024;52.172;5.378;2022-11-04T02:50:28;13.30;99.90
7958;DHT22;4024;52.172;5.378;2022-11-04T02:55:44;13.20;99.90
7958;DHT22;4024;52.172;5.378;2022-11-04T02:58:16;13.20;99.90
7958;DHT22;4024;52.172;5.378;2022-11-04T03:00:44;13.30;99.90
7958;DHT22;4024;52.172;5.378;2022-11-04T03:03:15;13.30;99.90
7958;DHT22;4024;52.172;5.378;2022-11-04T03:05:44;13.30;99.90
7958;DHT22;4024;52.172;5.378;2022-11-04T03:08:38;13.30;99.90
7958;DHT22;4024;52.172;5.378;2022-11-04T03:11:11;13.20;99.90
7958;DHT22;4024;52.172;5.378;2022-11-04T03:13:43;13.20;99.90
7958;DHT22;4024;52.172;5.378;2022-11-04T03:16:12;13.20;99.90
7958;DHT22;4024;52.172;5.378;2022-11-04T03:18:53;13.20;99.90
7958;DHT22;4024;52.172;5.378;2022-11-04T03:21:22;13.20;99.90
7958;DHT22;4024;52.172;5.378;2022-11-04T03:23:49;13.20;99.90
7958;DHT22;4024;52.172;5.378;2022-11-04T03:27:29;13.10;99.90
7958;DHT22;4024;52.172;5.378;2022-11-04T03:29:44;13.10;99.90
7958;DHT22;4024;52.172;5.378;2022-11-04T03:32:35;13.00;99.90
7958;DHT22;4024;52.172;5.378;2022-11-04T03:35:01;13.00;99.90
7958;DHT22;4024;52.172;5.378;2022-11-04T03:37:27;13.00;99.90
7958;DHT22;4024;52.172;5.378;2022-11-04T03:39:54;12.90;99.90
7958;DHT22;4024;52.172;5.378;2022-11-04T03:42:22;12.90;99.90
7958;DHT22;4024;52.172;5.378;2022-11-04T03:44:53;12.90;99.90
7958;DHT22;4024;52.172;5.378;2022-11-04T03:47:21;12.90;99.90
7958;DHT22;4024;52.172;5.378;2022-11-04T03:49:50;12.90;99.90
7958;DHT22;4024;52.172;5.378;2022-11-04T03:52:17;12.80;99.90
7958;DHT22;4024;52.172;5.378;2022-11-04T03:54:43;12.80;99.90
7958;DHT22;4024;52.172;5.378;2022-11-04T04:02:13;12.70;99.90
7958;DHT22;4024;52.172;5.378;2022-11-04T04:04:57;12.70;99.90
7958;DHT22;4024;52.172;5.378;2022-11-04T04:07:36;12.70;99.90
7958;DHT22;4024;52.172;5.378;2022-11-04T04:10:28;12.60;99.90
7958;DHT22;4024;52.172;5.378;2022-11-04T04:13:26;12.60;99.90
7958;DHT22;4024;52.172;5.378;2022-11-04T04:18:34;12.50;99.90
7958;DHT22;4024;52.172;5.378;2022-11-04T04:21:05;12.40;99.90
7958;DHT22;4024;52.172;5.378;2022-11-04T04:23:34;12.40;99.90
7958;DHT22;4024;52.172;5.378;2022-11-04T04:26:21;12.30;99.90
7958;DHT22;4024;52.172;5.378;2022-11-04T04:29:06;12.30;99.90
7958;DHT22;4024;52.172;5.378;2022-11-04T04:31:35;12.30;99.90
7958;DHT22;4024;52.172;5.378;2022-11-04T04:34:14;12.20;99.90
7958;DHT22;4024;52.172;5.378;2022-11-04T04:36:45;12.20;99.90
7958;DHT22;4024;52.172;5.378;2022-11-04T04:39:16;12.20;99.90
7958;DHT22;4024;52.172;5.378;2022-11-04T04:42:02;12.20;99.90
7958;DHT22;4024;52.172;5.378;2022-11-04T04:44:47;12.10;99.90
7958;DHT22;4024;52.172;5.378;2022-11-04T04:47:32;12.10;99.90
7958;DHT22;4024;52.172;5.378;2022-11-04T04:49:59;12.10;99.90
7958;DHT22;4024;52.172;5.378;2022-11-04T04:52:43;12.10;99.90
7958;DHT22;4024;52.172;5.378;2022-11-04T04:55:10;12.10;99.90
7958;DHT22;4024;52.172;5.378;2022-11-04T04:57:36;12.10;99.90
7958;DHT22;4024;52.172;5.378;2022-11-04T05:00:03;12.00;99.90
7958;DHT22;4024;52.172;5.378;2022-11-04T05:02:29;12.00;99.90
7958;DHT22;4024;52.172;5.378;2022-11-04T05:04:56;12.00;99.90
7958;DHT22;4024;52.172;5.378;2022-11-04T05:07:23;11.90;99.90
7958;DHT22;4024;52.172;5.378;2022-11-04T05:09:49;11.90;99.90
7958;DHT22;4024;52.172;5.378;2022-11-04T05:12:15;11.90;99.90
7958;DHT22;4024;52.172;5.378;2022-11-04T05:14:41;11.90;99.90
7958;DHT22;4024;52.172;5.378;2022-11-04T05:17:07;11.90;99.90
7958;DHT22;4024;52.172;5.378;2022-11-04T05:19:32;11.90;99.90
7958;DHT22;4024;52.172;5.378;2022-11-04T05:21:58;11.90;99.90
7958;DHT22;4024;52.172;5.378;2022-11-04T05:24:24;11.90;99.90
7958;DHT22;4024;52.172;5.378;2022-11-04T05:26:49;11.80;99.90
7958;DHT22;4024;52.172;5.378;2022-11-04T05:29:15;11.80;99.90
7958;DHT22;4024;52.172;5.378;2022-11-04T05:31:41;11.90;99.90
7958;DHT22;4024;52.172;5.378;2022-11-04T05:34:09;11.90;99.90
7958;DHT22;4024;52.172;5.378;2022-11-04T05:36:35;11.90;99.90
7958;DHT22;4024;52.172;5.378;2022-11-04T05:39:02;11.90;99.90
7958;DHT22;4024;52.172;5.378;2022-11-04T05:41:28;11.90;99.90
7958;DHT22;4024;52.172;5.378;2022-11-04T05:43:58;11.90;99.90
7958;DHT22;4024;52.172;5.378;2022-11-04T05:46:24;11.90;99.90
7958;DHT22;4024;52.172;5.378;2022-11-04T05:48:50;11.90;99.90
7958;DHT22;4024;52.172;5.378;2022-11-04T05:51:19;11.80;99.90
7958;DHT22;4024;52.172;5.378;2022-11-04T05:53:45;11.80;99.90
7958;DHT22;4024;52.172;5.378;2022-11-04T05:56:10;11.80;99.90
7958;DHT22;4024;52.172;5.378;2022-11-04T05:58:36;11.80;99.90
7958;DHT22;4024;52.172;5.378;2022-11-04T06:01:27;11.70;99.90
7958;DHT22;4024;52.172;5.378;2022-11-04T06:03:53;11.70;99.90
7958;DHT22;4024;52.172;5.378;2022-11-04T06:06:20;11.70;99.90
7958;DHT22;4024;52.172;5.378;2022-11-04T06:08:46;11.60;99.90
7958;DHT22;4024;52.172;5.378;2022-11-04T06:11:11;11.60;99.90
7958;DHT22;4024;52.172;5.378;2022-11-04T06:13:37;11.60;99.90
7958;DHT22;4024;52.172;5.378;2022-11-04T06:16:03;11.60;99.90
7958;DHT22;4024;52.172;5.378;2022-11-04T06:18:28;11.60;99.90
7958;DHT22;4024;52.172;5.378;2022-11-04T06:21:08;11.70;99.90
7958;DHT22;4024;52.172;5.378;2022-11-04T06:23:34;11.70;99.90
7958;DHT22;4024;52.172;5.378;2022-11-04T06:25:59;11.60;99.90
7958;DHT22;4024;52.172;5.378;2022-11-04T06:28:25;11.60;99.90
7958;DHT22;4024;52.172;5.378;2022-11-04T06:30:51;11.60;99.90
7958;DHT22;4024;52.172;5.378;2022-11-04T06:33:16;11.60;99.90
7958;DHT22;4024;52.172;5.378;2022-11-04T06:35:42;11.60;99.90
7958;DHT22;4024;52.172;5.378;2022-11-04T06:38:07;11.50;99.90
7958;DHT22;4024;52.172;5.378;2022-11-04T06:40:33;11.50;99.90
7958;DHT22;4024;52.172;5.378;2022-11-04T06:42:58;11.50;99.90
7958;DHT22;4024;52.172;5.378;2022-11-04T06:45:24;11.40;99.90
7958;DHT22;4024;52.172;5.378;2022-11-04T06:47:50;11.40;99.90
7958;DHT22;4024;52.172;5.378;2022-11-04T06:50:15;11.40;99.90
7958;DHT22;4024;52.172;5.378;2022-11-04T06:52:41;11.30;99.90
7958;DHT22;4024;52.172;5.378;2022-11-04T06:55:07;11.30;99.90
7958;DHT22;4024;52.172;5.378;2022-11-04T06:57:33;11.30;99.90
7958;DHT22;4024;52.172;5.378;2022-11-04T06:59:59;11.30;99.90
7958;DHT22;4024;52.172;5.378;2022-11-04T07:02:24;11.30;99.90
7958;DHT22;4024;52.172;5.378;2022-11-04T07:04:50;11.20;99.90
7958;DHT22;4024;52.172;5.378;2022-11-04T07:07:16;11.20;99.90
7958;DHT22;4024;52.172;5.378;2022-11-04T07:09:41;11.20;99.90
7958;DHT22;4024;52.172;5.378;2022-11-04T07:12:07;11.20;99.90
7958;DHT22;4024;52.172;5.378;2022-11-04T07:14:32;11.20;99.90
7958;DHT22;4024;52.172;5.378;2022-11-04T07:16:58;11.20;99.90
7958;DHT22;4024;52.172;5.378;2022-11-04T07:19:23;11.20;99.90
7958;DHT22;4024;52.172;5.378;2022-11-04T07:21:49;11.20;99.90
7958;DHT22;4024;52.172;5.378;2022-11-04T07:24:15;11.10;99.90
7958;DHT22;4024;52.172;5.378;2022-11-04T07:26:40;11.10;99.90
7958;DHT22;4024;52.172;5.378;2022-11-04T07:29:07;11.10;99.90
7958;DHT22;4024;52.172;5.378;2022-11-04T07:31:36;11.10;99.90
7958;DHT22;4024;52.172;5.378;2022-11-04T07:34:02;11.10;99.90
7958;DHT22;4024;52.172;5.378;2022-11-04T07:36:28;11.10;99.90
7958;DHT22;4024;52.172;5.378;2022-11-04T07:38:54;11.10;99.90
7958;DHT22;4024;52.172;5.378;2022-11-04T07:41:20;11.10;99.90
7958;DHT22;4024;52.172;5.378;2022-11-04T07:43:49;11.10;99.90
7958;DHT22;4024;52.172;5.378;2022-11-04T07:46:16;11.10;99.90
7958;DHT22;4024;52.172;5.378;2022-11-04T07:48:41;11.10;99.90
7958;DHT22;4024;52.172;5.378;2022-11-04T07:51:10;11.10;99.90
7958;DHT22;4024;52.172;5.378;2022-11-04T07:53:36;11.20;99.90
7958;DHT22;4024;52.172;5.378;2022-11-04T07:56:03;11.20;99.90
7958;DHT22;4024;52.172;5.378;2022-11-04T07:58:29;11.20;99.90
7958;DHT22;4024;52.172;5.378;2022-11-04T08:01:07;11.20;99.90
7958;DHT22;4024;52.172;5.378;2022-11-04T08:03:33;11.20;99.90
7958;DHT22;4024;52.172;5.378;2022-11-04T08:06:00;11.20;99.90
7958;DHT22;4024;52.172;5.378;2022-11-04T08:08:27;11.40;99.90
7958;DHT22;4024;52.172;5.378;2022-11-04T08:11:10;11.20;99.90
7958;DHT22;4024;52.172;5.378;2022-11-04T08:13:37;11.20;99.90
7958;DHT22;4024;52.172;5.378;2022-11-04T08:16:05;11.30;99.90
7958;DHT22;4024;52.172;5.378;2022-11-04T08:18:32;11.30;99.90
7958;DHT22;4024;52.172;5.378;2022-11-04T08:20:58;11.30;99.90
7958;DHT22;4024;52.172;5.378;2022-11-04T08:23:24;11.30;99.90
7958;DHT22;4024;52.172;5.378;2022-11-04T08:25:50;11.30;99.90
7958;DHT22;4024;52.172;5.378;2022-11-04T08:28:15;11.40;99.90
7958;DHT22;4024;52.172;5.378;2022-11-04T08:30:55;11.40;99.90
7958;DHT22;4024;52.172;5.378;2022-11-04T08:33:23;11.40;99.90
7958;DHT22;4024;52.172;5.378;2022-11-04T08:35:49;11.40;99.90
7958;DHT22;4024;52.172;5.378;2022-11-04T08:38:15;11.40;99.90
7958;DHT22;4024;52.172;5.378;2022-11-04T08:40:41;11.40;99.90
7958;DHT22;4024;52.172;5.378;2022-11-04T08:43:06;11.40;99.90
7958;DHT22;4024;52.172;5.378;2022-11-04T08:45:33;11.50;99.90
7958;DHT22;4024;52.172;5.378;2022-11-04T08:48:02;11.50;99.90
7958;DHT22;4024;52.172;5.378;2022-11-04T08:50:29;11.60;99.90
7958;DHT22;4024;52.172;5.378;2022-11-04T08:52:55;11.50;99.90
7958;DHT22;4024;52.172;5.378;2022-11-04T08:55:20;11.60;99.90
7958;DHT22;4024;52.172;5.378;2022-11-04T08:57:46;11.80;99.90
7958;DHT22;4024;52.172;5.378;2022-11-04T09:00:12;11.70;99.90
7958;DHT22;4024;52.172;5.378;2022-11-04T09:02:38;11.80;99.90
7958;DHT22;4024;52.172;5.378;2022-11-04T09:05:05;11.90;99.90
7958;DHT22;4024;52.172;5.378;2022-11-04T09:07:31;12.00;99.90
7958;DHT22;4024;52.172;5.378;2022-11-04T09:09:57;12.10;99.90
7958;DHT22;4024;52.172;5.378;2022-11-04T09:12:22;12.20;99.90
7958;DHT22;4024;52.172;5.378;2022-11-04T09:14:48;12.20;99.90
7958;DHT22;4024;52.172;5.378;2022-11-04T09:17:13;12.30;99.90
7958;DHT22;4024;52.172;5.378;2022-11-04T09:19:39;12.40;99.90
7958;DHT22;4024;52.172;5.378;2022-11-04T09:22:05;12.50;99.90
7958;DHT22;4024;52.172;5.378;2022-11-04T09:24:30;12.50;99.90
7958;DHT22;4024;52.172;5.378;2022-11-04T09:26:56;12.50;99.90
7958;DHT22;4024;52.172;5.378;2022-11-04T09:29:22;12.60;99.90
7958;DHT22;4024;52.172;5.378;2022-11-04T09:31:47;12.70;99.90
7958;DHT22;4024;52.172;5.378;2022-11-04T09:34:14;12.70;99.90
7958;DHT22;4024;52.172;5.378;2022-11-04T09:36:41;12.80;99.90
7958;DHT22;4024;52.172;5.378;2022-11-04T09:39:08;12.80;99.90
7958;DHT22;4024;52.172;5.378;2022-11-04T09:44:26;12.80;99.90
7958;DHT22;4024;52.172;5.378;2022-11-04T09:46:57;12.90;99.90
7958;DHT22;4024;52.172;5.378;2022-11-04T09:49:26;12.90;99.90
7958;DHT22;4024;52.172;5.378;2022-11-04T09:51:53;12.90;99.90
7958;DHT22;4024;52.172;5.378;2022-11-04T09:56:48;12.90;99.90
7958;DHT22;4024;52.172;5.378;2022-11-04T09:59:28;13.00;99.90
7958;DHT22;4024;52.172;5.378;2022-11-04T10:04:52;13.10;99.90
7958;DHT22;4024;52.172;5.378;2022-11-04T10:20:54;13.40;99.90
7958;DHT22;4024;52.172;5.378;2022-11-04T10:23:32;13.50;99.90
7958;DHT22;4024;52.172;5.378;2022-11-04T10:26:15;13.50;99.90
7958;DHT22;4024;52.172;5.378;2022-11-04T10:28:56;13.50;99.90
7958;DHT22;4024;52.172;5.378;2022-11-04T10:31:23;13.60;99.90
7958;DHT22;4024;52.172;5.378;2022-11-04T10:33:53;13.60;99.90
7958;DHT22;4024;52.172;5.378;2022-11-04T10:36:20;13.60;99.90
7958;DHT22;4024;52.172;5.378;2022-11-04T10:38:54;13.70;99.90
7958;DHT22;4024;52.172;5.378;2022-11-04T10:43:50;13.70;99.90
7958;DHT22;4024;52.172;5.378;2022-11-04T10:46:31;13.70;99.90
7958;DHT22;4024;52.172;5.378;2022-11-04T10:51:53;13.80;99.90
7958;DHT22;4024;52.172;5.378;2022-11-04T10:54:19;13.80;99.90
7958;DHT22;4024;52.172;5.378;2022-11-04T10:56:50;13.90;99.90
7958;DHT22;4024;52.172;5.378;2022-11-04T10:59:18;13.90;99.90
7958;DHT22;4024;52.172;5.378;2022-11-04T11:01:50;13.90;99.90
7958;DHT22;4024;52.172;5.378;2022-11-04T11:04:32;14.00;99.90
7958;DHT22;4024;52.172;5.378;2022-11-04T11:07:02;14.00;99.90
7958;DHT22;4024;52.172;5.378;2022-11-04T11:09:31;14.10;99.90
7958;DHT22;4024;52.172;5.378;2022-11-04T11:12:20;14.10;99.90
7958;DHT22;4024;52.172;5.378;2022-11-04T11:14:55;14.20;99.90
7958;DHT22;4024;52.172;5.378;2022-11-04T11:17:35;14.20;99.90
7958;DHT22;4024;52.172;5.378;2022-11-04T11:20:19;14.30;99.90
7958;DHT22;4024;52.172;5.378;2022-11-04T11:22:46;14.30;99.90
7958;DHT22;4024;52.172;5.378;2022-11-04T11:25:23;14.40;99.90
7958;DHT22;4024;52.172;5.378;2022-11-04T11:30:53;14.40;99.90
7958;DHT22;4024;52.172;5.378;2022-11-04T11:33:58;14.50;99.90
7958;DHT22;4024;52.172;5.378;2022-11-04T11:36:17;14.40;99.90
7958;DHT22;4024;52.172;5.378;2022-11-04T11:41:19;14.50;99.90
7958;DHT22;4024;52.172;5.378;2022-11-04T11:43:53;14.60;99.90
7958;DHT22;4024;52.172;5.378;2022-11-04T11:46:24;14.50;99.90
7958;DHT22;4024;52.172;5.378;2022-11-04T11:48:55;14.50;99.90
7958;DHT22;4024;52.172;5.378;2022-11-04T11:51:45;14.50;99.90
7958;DHT22;4024;52.172;5.378;2022-11-04T11:54:31;14.40;99.90
7958;DHT22;4024;52.172;5.378;2022-11-04T11:57:01;14.40;99.90
7958;DHT22;4024;52.172;5.378;2022-11-04T11:59:36;14.50;99.90
7958;DHT22;4024;52.172;5.378;2022-11-04T12:02:39;14.40;99.90
7958;DHT22;4024;52.172;5.378;2022-11-04T12:05:09;14.30;99.90
7958;DHT22;4024;52.172;5.378;2022-11-04T12:08:03;14.40;99.90
7958;DHT22;4024;52.172;5.378;2022-11-04T12:10:38;14.30;99.90
7958;DHT22;4024;52.172;5.378;2022-11-04T12:13:29;14.30;99.90
7958;DHT22;4024;52.172;5.378;2022-11-04T12:18:50;14.30;99.90
7958;DHT22;4024;52.172;5.378;2022-11-04T12:21:27;14.30;99.90
7958;DHT22;4024;52.172;5.378;2022-11-04T12:27:23;14.40;99.90
7958;DHT22;4024;52.172;5.378;2022-11-04T12:35:38;14.50;99.90
7958;DHT22;4024;52.172;5.378;2022-11-04T12:43:39;14.60;99.90
7958;DHT22;4024;52.172;5.378;2022-11-04T12:54:55;14.70;99.90
7958;DHT22;4024;52.172;5.378;2022-11-04T12:57:31;14.70;99.90
7958;DHT22;4024;52.172;5.378;2022-11-04T13:00:07;14.70;99.90
7958;DHT22;4024;52.172;5.378;2022-11-04T13:02:56;14.80;99.90
7958;DHT22;4024;52.172;5.378;2022-11-04T13:05:29;14.80;99.90
7958;DHT22;4024;52.172;5.378;2022-11-04T13:10:50;14.80;99.90
7958;DHT22;4024;52.172;5.378;2022-11-04T13:13:22;14.90;99.90
7958;DHT22;4024;52.172;5.378;2022-11-04T13:15:59;14.90;99.90
7958;DHT22;4024;52.172;5.378;2022-11-04T13:18:30;14.90;99.90
7958;DHT22;4024;52.172;5.378;2022-11-04T13:21:07;14.90;99.90
7958;DHT22;4024;52.172;5.378;2022-11-04T13:23:47;15.00;99.90
7958;DHT22;4024;52.172;5.378;2022-11-04T13:26:15;15.00;99.90
7958;DHT22;4024;52.172;5.378;2022-11-04T13:28:43;15.00;99.90
7958;DHT22;4024;52.172;5.378;2022-11-04T13:33:51;14.90;99.90
7958;DHT22;4024;52.172;5.378;2022-11-04T13:36:49;14.80;99.90
7958;DHT22;4024;52.172;5.378;2022-11-04T13:39:41;14.80;99.90
7958;DHT22;4024;52.172;5.378;2022-11-04T13:44:54;14.50;99.90
7958;DHT22;4024;52.172;5.378;2022-11-04T13:47:42;14.40;99.90
7958;DHT22;4024;52.172;5.378;2022-11-04T13:52:58;14.20;99.90
7958;DHT22;4024;52.172;5.378;2022-11-04T13:55:24;14.10;99.90
7958;DHT22;4024;52.172;5.378;2022-11-04T13:57:56;14.10;99.90
7958;DHT22;4024;52.172;5.378;2022-11-04T14:00:27;14.00;99.90
7958;DHT22;4024;52.172;5.378;2022-11-04T14:02:58;14.00;99.90
7958;DHT22;4024;52.172;5.378;2022-11-04T14:10:56;13.90;99.90
7958;DHT22;4024;52.172;5.378;2022-11-04T14:18:46;13.90;99.90
7958;DHT22;4024;52.172;5.378;2022-11-04T14:21:22;13.90;99.90
7958;DHT22;4024;52.172;5.378;2022-11-04T14:23:56;13.90;99.90
7958;DHT22;4024;52.172;5.378;2022-11-04T14:26:28;13.90;99.90
7958;DHT22;4024;52.172;5.378;2022-11-04T14:29:22;13.90;99.90
7958;DHT22;4024;52.172;5.378;2022-11-04T14:31:54;13.90;99.90
7958;DHT22;4024;52.172;5.378;2022-11-04T14:34:26;14.00;99.90
7958;DHT22;4024;52.172;5.378;2022-11-04T14:36:57;14.00;99.90
7958;DHT22;4024;52.172;5.378;2022-11-04T14:39:27;14.00;99.90
7958;DHT22;4024;52.172;5.378;2022-11-04T14:42:00;14.00;99.90
7958;DHT22;4024;52.172;5.378;2022-11-04T14:44:47;14.00;99.90
7958;DHT22;4024;52.172;5.378;2022-11-04T14:47:26;14.00;99.90
7958;DHT22;4024;52.172;5.378;2022-11-04T14:52:46;14.10;99.90
7958;DHT22;4024;52.172;5.378;2022-11-04T14:55:22;14.00;99.90
7958;DHT22;4024;52.172;5.378;2022-11-04T14:57:51;14.00;99.90
7958;DHT22;4024;52.172;5.378;2022-11-04T15:03:15;14.00;99.90
7958;DHT22;4024;52.172;5.378;2022-11-04T15:05:48;14.00;99.90
7958;DHT22;4024;52.172;5.378;2022-11-04T15:08:34;14.00;99.90
7958;DHT22;4024;52.172;5.378;2022-11-04T15:11:26;14.00;99.90
7958;DHT22;4024;52.172;5.378;2022-11-04T15:14:20;14.00;99.90
7958;DHT22;4024;52.172;5.378;2022-11-04T15:16:52;14.00;99.90
7958;DHT22;4024;52.172;5.378;2022-11-04T15:21:52;13.90;99.90
7958;DHT22;4024;52.172;5.378;2022-11-04T15:24:18;13.80;99.90
7958;DHT22;4024;52.172;5.378;2022-11-04T15:26:52;13.80;99.90
7958;DHT22;4024;52.172;5.378;2022-11-04T15:29:21;13.80;99.90
7958;DHT22;4024;52.172;5.378;2022-11-04T15:32:02;13.70;99.90
7958;DHT22;4024;52.172;5.378;2022-11-04T15:34:28;13.60;99.90
7958;DHT22;4024;52.172;5.378;2022-11-04T15:37:00;13.70;99.90
7958;DHT22;4024;52.172;5.378;2022-11-04T15:39:50;13.50;99.90
7958;DHT22;4024;52.172;5.378;2022-11-04T15:42:19;13.50;99.90
7958;DHT22;4024;52.172;5.378;2022-11-04T15:48:20;13.40;99.90
7958;DHT22;4024;52.172;5.378;2022-11-04T15:50:46;13.40;99.90
7958;DHT22;4024;52.172;5.378;2022-11-04T15:53:14;13.30;99.90
7958;DHT22;4024;52.172;5.378;2022-11-04T15:55:40;13.30;99.90
7958;DHT22;4024;52.172;5.378;2022-11-04T15:58:11;13.30;99.90
7958;DHT22;4024;52.172;5.378;2022-11-04T16:00:38;13.20;99.90
7958;DHT22;4024;52.172;5.378;2022-11-04T16:03:04;13.10;99.90
7958;DHT22;4024;52.172;5.378;2022-11-04T16:05:35;13.20;99.90
7958;DHT22;4024;52.172;5.378;2022-11-04T16:10:43;13.10;99.90
7958;DHT22;4024;52.172;5.378;2022-11-04T16:18:34;13.00;99.90
7958;DHT22;4024;52.172;5.378;2022-11-04T16:23:42;12.90;99.90
7958;DHT22;4024;52.172;5.378;2022-11-04T16:26:09;12.90;99.90
7958;DHT22;4024;52.172;5.378;2022-11-04T16:28:37;12.90;99.90
7958;DHT22;4024;52.172;5.378;2022-11-04T16:31:22;12.80;99.90
7958;DHT22;4024;52.172;5.378;2022-11-04T16:33:48;12.80;99.90
7958;DHT22;4024;52.172;5.378;2022-11-04T16:36:14;12.80;99.90
7958;DHT22;4024;52.172;5.378;2022-11-04T16:41:18;12.70;99.90
7958;DHT22;4024;52.172;5.378;2022-11-04T16:43:44;12.70;99.90
7958;DHT22;4024;52.172;5.378;2022-11-04T16:46:11;12.70;99.90
7958;DHT22;4024;52.172;5.378;2022-11-04T16:48:36;12.70;99.90
7958;DHT22;4024;52.172;5.378;2022-11-04T16:51:02;12.70;99.90
7958;DHT22;4024;52.172;5.378;2022-11-04T16:53:28;12.70;99.90
7958;DHT22;4024;52.172;5.378;2022-11-04T16:55:54;12.70;99.90
7958;DHT22;4024;52.172;5.378;2022-11-04T16:58:21;12.70;99.90
7958;DHT22;4024;52.172;5.378;2022-11-04T17:00:47;12.60;99.90
7958;DHT22;4024;52.172;5.378;2022-11-04T17:03:15;12.60;99.90
7958;DHT22;4024;52.172;5.378;2022-11-04T17:05:51;12.60;99.90
7958;DHT22;4024;52.172;5.378;2022-11-04T17:08:19;12.60;99.90
7958;DHT22;4024;52.172;5.378;2022-11-04T17:10:45;12.50;99.90
7958;DHT22;4024;52.172;5.378;2022-11-04T17:13:11;12.50;99.90
7958;DHT22;4024;52.172;5.378;2022-11-04T17:15:36;12.50;99.90
7958;DHT22;4024;52.172;5.378;2022-11-04T17:18:02;12.50;99.90
7958;DHT22;4024;52.172;5.378;2022-11-04T17:20:28;12.50;99.90
7958;DHT22;4024;52.172;5.378;2022-11-04T17:22:57;12.50;99.90
7958;DHT22;4024;52.172;5.378;2022-11-04T17:25:26;12.50;99.90
7958;DHT22;4024;52.172;5.378;2022-11-04T17:27:53;12.50;99.90
7958;DHT22;4024;52.172;5.378;2022-11-04T17:30:20;12.50;99.90
7958;DHT22;4024;52.172;5.378;2022-11-04T17:32:47;12.50;99.90
7958;DHT22;4024;52.172;5.378;2022-11-04T17:35:13;12.50;99.90
7958;DHT22;4024;52.172;5.378;2022-11-04T17:37:40;12.50;99.90
7958;DHT22;4024;52.172;5.378;2022-11-04T17:40:07;12.50;99.90
7958;DHT22;4024;52.172;5.378;2022-11-04T17:42:33;12.50;99.90
7958;DHT22;4024;52.172;5.378;2022-11-04T17:45:17;12.50;99.90
7958;DHT22;4024;52.172;5.378;2022-11-04T17:47:42;12.50;99.90
7958;DHT22;4024;52.172;5.378;2022-11-04T17:50:08;12.50;99.90
7958;DHT22;4024;52.172;5.378;2022-11-04T17:52:35;12.50;99.90
7958;DHT22;4024;52.172;5.378;2022-11-04T17:55:01;12.50;99.90
7958;DHT22;4024;52.172;5.378;2022-11-04T17:57:27;12.50;99.90
7958;DHT22;4024;52.172;5.378;2022-11-04T17:59:53;12.50;99.90
7958;DHT22;4024;52.172;5.378;2022-11-04T18:02:19;12.50;99.90
7958;DHT22;4024;52.172;5.378;2022-11-04T18:04:45;12.40;99.90
7958;DHT22;4024;52.172;5.378;2022-11-04T18:07:11;12.40;99.90
7958;DHT22;4024;52.172;5.378;2022-11-04T18:09:37;12.40;99.90
7958;DHT22;4024;52.172;5.378;2022-11-04T18:12:04;12.40;99.90
7958;DHT22;4024;52.172;5.378;2022-11-04T18:14:48;12.40;99.90
7958;DHT22;4024;52.172;5.378;2022-11-04T18:17:15;12.40;99.90
7958;DHT22;4024;52.172;5.378;2022-11-04T18:19:41;12.40;99.90
7958;DHT22;4024;52.172;5.378;2022-11-04T18:22:07;12.30;99.90
7958;DHT22;4024;52.172;5.378;2022-11-04T18:24:33;12.30;99.90
7958;DHT22;4024;52.172;5.378;2022-11-04T18:26:59;12.30;99.90
7958;DHT22;4024;52.172;5.378;2022-11-04T18:29:25;12.20;99.90
7958;DHT22;4024;52.172;5.378;2022-11-04T18:31:51;12.20;99.90
7958;DHT22;4024;52.172;5.378;2022-11-04T18:34:17;12.20;99.90
7958;DHT22;4024;52.172;5.378;2022-11-04T18:36:44;12.10;99.90
7958;DHT22;4024;52.172;5.378;2022-11-04T18:39:12;12.10;99.90